Virtual United States Air Force

 FLIGHT DETAILS
Pilot: A7100 Michael Taylor Aircraft: F-22A RAPTOR 1.1 525 FS BULLDOGS Distance: 415NM
Departure KLSV Arrival KLSV Duration 01:10
Validation Validated Type Charter Tail Number 05-4084
ZFW 46346 Block Fuel/Initial FOB 7,903/0 Flight Fuel 13,180
Passengers 0 Cargo 0 Alternate
Departure Time Cruise Speed Flight Level
Flight Type IFR Aircraft Type F22 Weight Unit Lbs
Date February-11-2022 Pilot Comments Network IVAO
Crashed No Validator Comments Flight Rating 100

 ROUTE
ROUTE DCT NTTR
REMARKS MARSA WITH A7314 FOR SUPT 400
 FLIGHT FAILURES
Crashed OK Beacon off & Engine Running Fail KIAS Above 250 below 10000 FT Fail
Lights OFF below 10000 FT Fail Lights ON above 10000 FT OK Stall OK
Overspeed OK Flight paused OK Refueling Fail
Slew detected OK Taxi & Taxi lights off Fail Take off & lights off Fail
Landing & lights off Fail Landed in not planned airport OK Taxi Speed Fail
Wrong altimeter in Take off OK Wrong altimeter in Landing OK
 LANDING ANALYSIS
Landing wind 206º/4 kt Landing heading 131
Landing VS: -499.82 ft/min Landing IAS: 172 kt
Landing Force G 2.2 G Landing Bank 0.3
Landing Pitch 5 Landing Flaps 34
Navigation Lights OFF Landing Lights OFF
Beacon Lights OFF Strobe Lights OFF
 FLIGHT MAP
 ALTITUDE CHART
 FLIGHT FINANCIAL REPORT
 MAIN EVENTS
DATE EVENTIASALTITUDE
2022-02-11 11:42:03 SIM ACARS version 1.4.101842
2022-02-11 11:42:03 BOARDING01842
2022-02-11 11:43:23 REFUELING 23.93%01842
2022-02-11 11:43:43 REFUELING 7.58%01842
2022-02-11 11:43:44 STARTING ENGINE 1 01842
2022-02-11 11:43:44 BEACON LIGHT OFF & ENGINE ON01842
2022-02-11 11:43:58 STARTING ENGINE 2 01842
2022-02-11 11:46:27 TAXI TO THE RWY 61841
2022-02-11 11:46:27 TAXING WITH TAXI LIGHTS OFF61841
2022-02-11 11:47:38 FLAPS EXTENSION 60 % 301837
2022-02-11 11:47:38 ROLLING FOR TAKE OFF321837
2022-02-11 11:47:43 REFUELING -0.90%1291840
2022-02-11 11:47:46 TAKE OFF1951844
2022-02-11 11:47:46 TAKE OFF WITH LIGHTS OFF1951844
2022-02-11 11:47:46 LIGHTS OFF BELOW 10000 ft1951844
2022-02-11 11:47:47 GEAR UP2011847
2022-02-11 11:47:47 FLAPS EXTENSION 40 % 2111859
2022-02-11 11:47:50 FLAPS EXTENSION 20 % 2401995
2022-02-11 11:47:51 IAS ABOVE 250 KNOTS BELOW 10000 ft2612130
2022-02-11 11:47:52 FLAPS EXTENSION 0 % 2732202
2022-02-11 11:48:03 REFUELING -1.88%3703200
2022-02-11 11:48:46 DESCEND3282943
2022-02-11 11:48:48 FLAPS EXTENSION 20 % 3152885
2022-02-11 11:48:48 FLAPS EXTENSION 0 % 3122889
2022-02-11 11:49:16 CLIMBING3065838
2022-02-11 11:50:03 REFUELING -0.87%3677360
2022-02-11 11:55:43 REFUELING -1.35%38925884
2022-02-11 11:56:56 DESCEND25324359
2022-02-11 11:57:03 REFUELING -0.53%25124002
2022-02-11 11:57:23 REFUELING -0.69%30923782
2022-02-11 11:57:43 REFUELING -0.74%34125766
2022-02-11 11:57:46 CLIMBING35025968
2022-02-11 11:58:03 REFUELING -1.09%40627466
2022-02-11 11:58:36 DESCEND40226149
2022-02-11 12:00:16 CRUISE40025364
2022-02-11 12:02:17 CLIMBING35825755
2022-02-11 12:02:23 REFUELING -0.99%41325818
2022-02-11 12:02:43 REFUELING -0.62%38126387
2022-02-11 12:03:03 REFUELING -1.10%33427083
2022-02-11 12:03:06 DESCEND37726542
2022-02-11 12:03:23 REFUELING -0.87%37726248
2022-02-11 12:03:46 CLIMBING22827533
2022-02-11 12:04:16 DESCEND20725788
2022-02-11 12:06:05 FLAPS EXTENSION 20 % 16915889
2022-02-11 12:06:11 FLAPS EXTENSION 80 % 17014673
2022-02-11 12:06:12 FLAPS EXTENSION 60 % 18114554
2022-02-11 12:06:16 FLAPS EXTENSION 80 % 18014125
2022-02-11 12:06:17 FLAPS EXTENSION 20 % 17614024
2022-02-11 12:06:18 FLAPS EXTENSION 80 % 16913975
2022-02-11 12:06:32 FLAPS EXTENSION 60 % 18013905
2022-02-11 12:06:39 FLAPS EXTENSION 0 % 20914588
2022-02-11 12:06:43 REFUELING -1.47%21615467
2022-02-11 12:06:57 CLIMBING25418709
2022-02-11 12:07:03 REFUELING -1.81%27420204
2022-02-11 12:07:23 REFUELING -1.94%36723303
2022-02-11 12:07:43 REFUELING -2.03%50321406
2022-02-11 12:08:17 DESCEND34421500
2022-02-11 12:09:31 FLAPS EXTENSION 20 % 2314641
2022-02-11 12:09:44 FLAPS EXTENSION 0 % 4011269
2022-02-11 12:09:49 FLAPS EXTENSION 20 % 149781
2022-02-11 12:09:58 FLAPS EXTENSION 0 % 838246
2022-02-11 12:10:06 FLAPS EXTENSION 20 % 637785
2022-02-11 12:10:07 FLAPS EXTENSION 0 % 627749
2022-02-11 12:10:07 FLAPS EXTENSION 20 % 617711
2022-02-11 12:10:13 GEAR DOWN857236
2022-02-11 12:10:13 GEAR UP937183
2022-02-11 12:10:20 FLAPS EXTENSION 60 % 1846526
2022-02-11 12:10:22 FLAPS EXTENSION 40 % 2106603
2022-02-11 12:10:23 REFUELING -1.20%2176661
2022-02-11 12:10:26 FLAPS EXTENSION 20 % 2416995
2022-02-11 12:10:28 FLAPS EXTENSION 0 % 2607371
2022-02-11 12:10:37 CLIMBING3569273
2022-02-11 12:10:43 REFUELING -1.93%41910185
2022-02-11 12:15:03 REFUELING -1.03%40024549
2022-02-11 12:15:23 REFUELING -1.01%33426005
2022-02-11 12:15:43 REFUELING -1.90%41827737
2022-02-11 12:16:07 DESCEND40926281
2022-02-11 12:16:23 REFUELING -1.41%41625132
2022-02-11 12:16:43 REFUELING -1.17%52620694
2022-02-11 12:17:17 CLIMBING42421197
2022-02-11 12:17:57 DESCEND37321186
2022-02-11 12:20:57 CRUISE34313992
2022-02-11 12:24:17 DESCEND26412887
2022-02-11 12:24:46 FLAPS EXTENSION 20 % 25012010
2022-02-11 12:25:17 CRUISE25012006
2022-02-11 12:25:22 FLAPS EXTENSION 0 % 25012006
2022-02-11 12:25:47 DESCEND26711088
2022-02-11 12:27:20 FLAPS EXTENSION 20 % 2697553
2022-02-11 12:27:27 FLAPS EXTENSION 40 % 2407973
2022-02-11 12:27:32 FLAPS EXTENSION 20 % 2408278
2022-02-11 12:27:37 CLIMBING2458528
2022-02-11 12:28:47 CRUISE2509500
2022-02-11 12:31:37 DESCEND2628391
2022-02-11 12:34:12 FLAPS EXTENSION 40 % 2405063
2022-02-11 12:34:21 FLAPS EXTENSION 60 % 2105054
2022-02-11 12:34:37 CRUISE1955032
2022-02-11 12:36:28 GEAR DOWN1984188
2022-02-11 12:37:27 DESCEND2013469
2022-02-11 12:37:51 FLAPS EXTENSION 100 % 1802486
2022-02-11 12:38:01 FLAPS EXTENSION 20 % 1202453
2022-02-11 12:38:06 FLAPS EXTENSION 100 % 1232385
2022-02-11 12:38:07 FLAPS EXTENSION 20 % 1262354
2022-02-11 12:38:10 FLAPS EXTENSION 100 % 1322306
2022-02-11 12:38:13 FLAPS EXTENSION 60 % 1802343
2022-02-11 12:38:15 FLAPS EXTENSION 100 % 1802421
2022-02-11 12:38:23 REFUELING -0.59%1462614
2022-02-11 12:38:27 CLIMBING1552701
2022-02-11 12:38:33 GEAR UP1562857
2022-02-11 12:38:34 FLAPS EXTENSION 80 % 1562857
2022-02-11 12:38:37 FLAPS EXTENSION 60 % 1822974
2022-02-11 12:38:39 FLAPS EXTENSION 40 % 2113111
2022-02-11 12:38:42 FLAPS EXTENSION 60 % 2103401
2022-02-11 12:38:43 REFUELING -0.83%2053464
2022-02-11 12:38:51 FLAPS EXTENSION 40 % 2113977
2022-02-11 12:40:17 CRUISE2204263
2022-02-11 12:40:34 FLAPS EXTENSION 60 % 2104264
2022-02-11 12:42:12 GEAR DOWN2004213
2022-02-11 12:44:27 CLIMBING2004340
2022-02-11 12:45:07 CRUISE2004363
2022-02-11 12:46:07 CLIMBING2014473
2022-02-11 12:48:47 CRUISE2005181
2022-02-11 12:50:07 CLIMBING2005404
2022-02-11 12:50:52 FLAPS EXTENSION 40 % 2104686
2022-02-11 12:51:01 FLAPS EXTENSION 60 % 2083830
2022-02-11 12:51:07 DESCEND1923728
2022-02-11 12:51:12 GEAR UP1833600
2022-02-11 12:51:21 FLAPS EXTENSION 80 % 1804342
2022-02-11 12:51:24 FLAPS EXTENSION 60 % 1814289
2022-02-11 12:51:26 FLAPS EXTENSION 40 % 2103951
2022-02-11 12:51:29 FLAPS EXTENSION 20 % 2413486
2022-02-11 12:51:31 GEAR DOWN2643088
2022-02-11 12:51:33 FLAPS EXTENSION 0 % 2812808
2022-02-11 12:51:36 GEAR UP3002590
2022-02-11 12:52:04 FLAPS EXTENSION 20 % 2802623
2022-02-11 12:52:07 CLIMBING2702763
2022-02-11 12:52:13 FLAPS EXTENSION 40 % 2403131
2022-02-11 12:52:18 FLAPS EXTENSION 60 % 2103459
2022-02-11 12:52:23 FLAPS EXTENSION 80 % 1793666
2022-02-11 12:52:32 FLAPS EXTENSION 20 % 1323774
2022-02-11 12:52:34 FLAPS EXTENSION 80 % 1333790
2022-02-11 12:52:37 FLAPS EXTENSION 60 % 1814030
2022-02-11 12:52:40 FLAPS EXTENSION 40 % 2104374
2022-02-11 12:52:41 FLAPS EXTENSION 60 % 2104482
2022-02-11 12:52:43 REFUELING -0.85%2004721
2022-02-11 12:52:54 FLAPS EXTENSION 40 % 2104944
2022-02-11 12:53:04 FLAPS EXTENSION 60 % 2104170
2022-02-11 12:53:27 DESCEND2014263
2022-02-11 12:54:47 CRUISE2004213
2022-02-11 12:55:52 GEAR DOWN2004215
2022-02-11 12:56:52 FLAPS EXTENSION 100 % 1804285
2022-02-11 12:56:57 GEAR UP1444440
2022-02-11 12:56:57 FLAPS EXTENSION 80 % 1444440
2022-02-11 12:57:02 FLAPS EXTENSION 60 % 1814723
2022-02-11 12:57:03 REFUELING -0.68%1984845
2022-02-11 12:57:43 REFUELING -0.51%2026002
2022-02-11 12:58:07 CLIMBING2026077
2022-02-11 12:58:47 CRUISE1985992
2022-02-11 12:59:37 DESCEND2014669
2022-02-11 12:59:54 GEAR DOWN2004280
2022-02-11 12:59:59 FLAPS EXTENSION 40 % 2104205
2022-02-11 13:00:07 FLAPS EXTENSION 20 % 2403769
2022-02-11 13:00:33 FLAPS EXTENSION 40 % 2402272
2022-02-11 13:00:44 FLAPS EXTENSION 60 % 2101985
2022-02-11 13:00:53 FLAPS EXTENSION 100 % 1801872
2022-02-11 13:00:55 LANDING WITH LANDING LIGHTS OFF1721853
2022-02-11 13:00:55 LANDING1721853
2022-02-11 13:00:58 FLAPS EXTENSION 0 % 1601850
2022-02-11 13:01:24 FLAPS EXTENSION 60 % 501839
2022-02-11 13:01:25 TAXI TO THE GATE161840
2022-02-11 13:01:25 TAXI SPEED ABOVE 25 KTS161840
2022-02-11 13:05:29 STOPPING ENGINE 2 11843
2022-02-11 13:05:53 FLAPS EXTENSION 100 % 11843
2022-02-11 13:05:53 STOPPING ENGINE 1 11843
 ACARS DATA
DATE IASGSALTITUDEFUEL CONSUMED OATFLIGHT STATUS
2022-02-11 11:43:03001841119BOARDING
2022-02-11 11:44:03001841-582219BOARDING
2022-02-11 11:45:03001841-580019BOARDING
2022-02-11 11:46:03001841-577719BOARDING
2022-02-11 11:47:03451837-573219TAXI TO THE RWY
2022-02-11 11:48:033703803200-520117CLIMBING
2022-02-11 11:49:032923134751-512213DESCEND
2022-02-11 11:50:033624137336-48768CLIMBING
2022-02-11 11:51:0339944910610-47010CLIMBING
2022-02-11 11:52:0339946113794-4568-6CLIMBING
2022-02-11 11:53:0339948317000-4430-13CLIMBING
2022-02-11 11:54:0339949820275-4277-20CLIMBING
2022-02-11 11:55:0340053723825-4096-28CLIMBING
2022-02-11 11:56:0340257825340-3742-32CLIMBING
2022-02-11 11:57:0325036924002-3570-29DESCEND
2022-02-11 11:58:0340557427449-3105-36CLIMBING
2022-02-11 11:59:0339654725383-3056-31DESCEND
2022-02-11 12:00:0340054725364-2958-33DESCEND
2022-02-11 12:01:0340254925448-2861-36CRUISE
2022-02-11 12:02:0340052925399-2774-36CRUISE
2022-02-11 12:03:0333146227108-2288-39CLIMBING
2022-02-11 12:04:0320534626707-2050-38CLIMBING
2022-02-11 12:05:0320428323286-1963-32DESCEND
2022-02-11 12:06:0317726816423-1870-16DESCEND
2022-02-11 12:07:0327237420166-1232-23CLIMBING
2022-02-11 12:08:0338349623482-485-30CLIMBING
2022-02-11 12:09:0318925017752-480-19DESCEND
2022-02-11 12:10:03701107986-3270DESCEND
2022-02-11 12:11:0339944511200278-5CLIMBING
2022-02-11 12:12:0340046314709415-12CLIMBING
2022-02-11 12:13:0340048818031544-19CLIMBING
2022-02-11 12:14:0340050621207679-25CLIMBING
2022-02-11 12:15:0339957924539966-32CLIMBING
2022-02-11 12:16:03415620264041518-36CLIMBING
2022-02-11 12:17:03457634212421998-25DESCEND
2022-02-11 12:18:03371526208752001-24DESCEND
2022-02-11 12:19:03380515177152003-17DESCEND
2022-02-11 12:20:03392505145392006-10DESCEND
2022-02-11 12:21:03337437139892008-8CRUISE
2022-02-11 12:22:03278367139792011-8CRUISE
2022-02-11 12:23:03248334140142041-8CRUISE
2022-02-11 12:24:03258344135942115-7CRUISE
2022-02-11 12:25:03247321120202146-4DESCEND
2022-02-11 12:26:032773401024121960DESCEND
2022-02-11 12:27:03313358709822025DESCEND
2022-02-11 12:28:03256308966423350CLIMBING
2022-02-11 12:29:03249300950024290CRUISE
2022-02-11 12:30:03250300950025290CRUISE
2022-02-11 12:31:03248299949526311CRUISE
2022-02-11 12:32:03264301699726686DESCEND
2022-02-11 12:33:032502715085272311DESCEND
2022-02-11 12:34:032492655044283612DESCEND
2022-02-11 12:35:031992135008295712CRUISE
2022-02-11 12:36:031992154197309913CRUISE
2022-02-11 12:37:032002194436331711CRUISE
2022-02-11 12:38:031171312430341316DESCEND
2022-02-11 12:39:032222324134376913CLIMBING
2022-02-11 12:40:032182324221392414CLIMBING
2022-02-11 12:41:031992114224406814CRUISE
2022-02-11 12:42:032002154213423213CRUISE
2022-02-11 12:43:031992164254444012CRUISE
2022-02-11 12:44:031992164231465212CRUISE
2022-02-11 12:45:031992134367486612CLIMBING
2022-02-11 12:46:032002124457508413CRUISE
2022-02-11 12:47:031992154756528911CLIMBING
2022-02-11 12:48:032002155076549510CLIMBING
2022-02-11 12:49:03200220526257099CRUISE
2022-02-11 12:50:03200218537859259CRUISE
2022-02-11 12:51:031992093798607313CLIMBING
2022-02-11 12:52:032842932562625016DESCEND
2022-02-11 12:53:032132284240645413CLIMBING
2022-02-11 12:54:031982064209661614DESCEND
2022-02-11 12:55:032002114213677814CRUISE
2022-02-11 12:56:031982134206694013CRUISE
2022-02-11 12:57:031932224810719211CRUISE
2022-02-11 12:58:03200225604973888CRUISE
2022-02-11 12:59:03200227605975518CRUISE
2022-02-11 13:00:032252453986766712DESCEND
2022-02-11 13:01:031411421842770618LANDED
2022-02-11 13:02:031081840773918TAXI TO THE GATE
2022-02-11 13:03:0310101843783218TAXI TO THE GATE
2022-02-11 13:04:03001843787118TAXI TO THE GATE
2022-02-11 13:05:03001843789018TAXI TO THE GATE
2022-02-11 13:06:03001843790420TAXI TO THE GATE
2022-02-11 13:07:03001843790420TAXI TO THE GATE
2022-02-11 13:08:03001843790420TAXI TO THE GATE
2022-02-11 13:09:03001843790420TAXI TO THE GATE

Neither the Department of the Air Force, nor any other component of the Department of Defense or Federal Government has approved, endorsed, or authorized this promotion, activity, or organization. Virtual United States Air Force organization is in no way affiliated with the Department of Defense, Department of the Air Force, or any other federal or government entity. Virtual United States Air Force is a group of flight simulation enthusiasts with the common interest of promoting enjoyment and cameraderie through the simulation of military operations and procedures utilizing several flight simulation platforms.

Copyright © vUSAF, LLC // 2018-2022 All Rights Reserved